sensor_id;sensor_type;location;lat;lon;timestamp;temperature;humidity
2913;DHT22;1466;48.778;9.166;2022-12-29T00:01:16;11.00;99.10
2913;DHT22;1466;48.778;9.166;2022-12-29T00:03:45;11.00;99.10
2913;DHT22;1466;48.778;9.166;2022-12-29T00:06:10;11.10;99.20
2913;DHT22;1466;48.778;9.166;2022-12-29T00:08:36;11.10;99.10
2913;DHT22;1466;48.778;9.166;2022-12-29T00:11:19;11.10;99.10
2913;DHT22;1466;48.778;9.166;2022-12-29T00:13:45;11.10;99.30
2913;DHT22;1466;48.778;9.166;2022-12-29T00:16:30;11.10;99.00
2913;DHT22;1466;48.778;9.166;2022-12-29T00:18:57;11.20;99.00
2913;DHT22;1466;48.778;9.166;2022-12-29T00:21:23;11.20;99.00
2913;DHT22;1466;48.778;9.166;2022-12-29T00:24:19;11.20;99.00
2913;DHT22;1466;48.778;9.166;2022-12-29T00:29:48;11.30;98.90
2913;DHT22;1466;48.778;9.166;2022-12-29T00:32:32;11.30;98.90
2913;DHT22;1466;48.778;9.166;2022-12-29T00:37:50;11.30;98.90
2913;DHT22;1466;48.778;9.166;2022-12-29T00:40:37;11.30;98.80
2913;DHT22;1466;48.778;9.166;2022-12-29T00:43:21;11.30;98.80
2913;DHT22;1466;48.778;9.166;2022-12-29T00:46:05;11.30;98.80
2913;DHT22;1466;48.778;9.166;2022-12-29T00:48:31;11.40;98.80
2913;DHT22;1466;48.778;9.166;2022-12-29T00:51:15;11.40;98.80
2913;DHT22;1466;48.778;9.166;2022-12-29T00:53:40;11.40;98.80
2913;DHT22;1466;48.778;9.166;2022-12-29T00:56:06;11.40;98.80
2913;DHT22;1466;48.778;9.166;2022-12-29T00:58:32;11.40;98.70
2913;DHT22;1466;48.778;9.166;2022-12-29T01:01:05;11.50;98.70
2913;DHT22;1466;48.778;9.166;2022-12-29T01:03:31;11.50;98.70
2913;DHT22;1466;48.778;9.166;2022-12-29T01:06:00;11.50;98.60
2913;DHT22;1466;48.778;9.166;2022-12-29T01:08:27;11.50;98.70
2913;DHT22;1466;48.778;9.166;2022-12-29T01:11:00;11.50;98.60
2913;DHT22;1466;48.778;9.166;2022-12-29T01:13:26;11.60;98.70
2913;DHT22;1466;48.778;9.166;2022-12-29T01:15:52;11.60;98.70
2913;DHT22;1466;48.778;9.166;2022-12-29T01:18:18;11.60;98.70
2913;DHT22;1466;48.778;9.166;2022-12-29T01:20:44;11.60;98.60
2913;DHT22;1466;48.778;9.166;2022-12-29T01:23:10;11.60;98.60
2913;DHT22;1466;48.778;9.166;2022-12-29T01:25:35;11.70;98.60
2913;DHT22;1466;48.778;9.166;2022-12-29T01:28:01;11.70;98.60
2913;DHT22;1466;48.778;9.166;2022-12-29T01:30:26;11.70;98.50
2913;DHT22;1466;48.778;9.166;2022-12-29T01:32:52;11.70;98.50
2913;DHT22;1466;48.778;9.166;2022-12-29T01:35:18;11.80;98.50
2913;DHT22;1466;48.778;9.166;2022-12-29T01:37:43;11.80;98.50
2913;DHT22;1466;48.778;9.166;2022-12-29T01:40:09;11.90;98.70
2913;DHT22;1466;48.778;9.166;2022-12-29T01:42:35;11.90;98.40
2913;DHT22;1466;48.778;9.166;2022-12-29T01:45:10;11.90;98.30
2913;DHT22;1466;48.778;9.166;2022-12-29T01:47:40;11.90;98.30
2913;DHT22;1466;48.778;9.166;2022-12-29T01:52:47;11.90;98.20
2913;DHT22;1466;48.778;9.166;2022-12-29T01:55:15;11.90;98.30
2913;DHT22;1466;48.778;9.166;2022-12-29T01:57:44;11.90;98.30
2913;DHT22;1466;48.778;9.166;2022-12-29T02:00:12;11.90;98.30
2913;DHT22;1466;48.778;9.166;2022-12-29T02:02:41;11.90;98.30
2913;DHT22;1466;48.778;9.166;2022-12-29T02:05:14;11.90;98.20
2913;DHT22;1466;48.778;9.166;2022-12-29T02:07:41;11.90;98.30
2913;DHT22;1466;48.778;9.166;2022-12-29T02:10:07;11.90;98.30
2913;DHT22;1466;48.778;9.166;2022-12-29T02:12:33;11.90;98.30
2913;DHT22;1466;48.778;9.166;2022-12-29T02:15:00;11.90;98.30
2913;DHT22;1466;48.778;9.166;2022-12-29T02:27:59;11.90;98.70
2913;DHT22;1466;48.778;9.166;2022-12-29T02:33:21;11.90;98.40
2913;DHT22;1466;48.778;9.166;2022-12-29T02:41:44;11.90;98.50
2913;DHT22;1466;48.778;9.166;2022-12-29T02:44:28;11.80;98.50
2913;DHT22;1466;48.778;9.166;2022-12-29T02:49:34;11.80;98.60
2913;DHT22;1466;48.778;9.166;2022-12-29T02:52:08;11.70;98.50
2913;DHT22;1466;48.778;9.166;2022-12-29T02:54:36;11.70;98.70
2913;DHT22;1466;48.778;9.166;2022-12-29T02:59:52;11.60;98.90
2913;DHT22;1466;48.778;9.166;2022-12-29T03:02:30;11.60;98.90
2913;DHT22;1466;48.778;9.166;2022-12-29T03:08:04;11.50;99.10
2913;DHT22;1466;48.778;9.166;2022-12-29T03:10:44;11.50;99.60
2913;DHT22;1466;48.778;9.166;2022-12-29T03:16:44;11.50;99.50
2913;DHT22;1466;48.778;9.166;2022-12-29T03:19:20;11.40;99.50
2913;DHT22;1466;48.778;9.166;2022-12-29T03:21:55;11.40;99.70
2913;DHT22;1466;48.778;9.166;2022-12-29T03:24:55;11.40;99.80
2913;DHT22;1466;48.778;9.166;2022-12-29T03:27:48;11.40;99.90
2913;DHT22;1466;48.778;9.166;2022-12-29T03:30:15;11.40;99.90
2913;DHT22;1466;48.778;9.166;2022-12-29T03:32:44;11.40;99.90
2913;DHT22;1466;48.778;9.166;2022-12-29T03:35:14;11.30;99.90
2913;DHT22;1466;48.778;9.166;2022-12-29T03:37:49;11.30;99.90
2913;DHT22;1466;48.778;9.166;2022-12-29T03:40:15;11.30;99.90
2913;DHT22;1466;48.778;9.166;2022-12-29T03:42:41;11.30;99.90
2913;DHT22;1466;48.778;9.166;2022-12-29T03:45:09;11.40;99.90
2913;DHT22;1466;48.778;9.166;2022-12-29T03:47:35;11.40;99.90
2913;DHT22;1466;48.778;9.166;2022-12-29T03:50:01;11.50;99.90
2913;DHT22;1466;48.778;9.166;2022-12-29T03:52:26;11.60;99.90
2913;DHT22;1466;48.778;9.166;2022-12-29T03:54:52;11.70;99.90
2913;DHT22;1466;48.778;9.166;2022-12-29T03:57:17;11.80;99.90
2913;DHT22;1466;48.778;9.166;2022-12-29T03:59:43;11.90;99.80
2913;DHT22;1466;48.778;9.166;2022-12-29T04:02:08;11.90;99.60
2913;DHT22;1466;48.778;9.166;2022-12-29T04:04:34;12.00;99.50
2913;DHT22;1466;48.778;9.166;2022-12-29T04:06:59;12.10;99.50
2913;DHT22;1466;48.778;9.166;2022-12-29T04:09:25;12.10;99.30
2913;DHT22;1466;48.778;9.166;2022-12-29T04:11:50;12.20;99.30
2913;DHT22;1466;48.778;9.166;2022-12-29T04:14:16;12.20;99.30
2913;DHT22;1466;48.778;9.166;2022-12-29T04:16:42;12.20;99.20
2913;DHT22;1466;48.778;9.166;2022-12-29T04:19:07;12.30;99.20
2913;DHT22;1466;48.778;9.166;2022-12-29T04:21:33;12.30;99.10
2913;DHT22;1466;48.778;9.166;2022-12-29T04:23:59;12.40;99.10
2913;DHT22;1466;48.778;9.166;2022-12-29T04:26:25;12.30;99.00
2913;DHT22;1466;48.778;9.166;2022-12-29T04:28:50;12.30;99.10
2913;DHT22;1466;48.778;9.166;2022-12-29T04:31:16;12.30;99.10
2913;DHT22;1466;48.778;9.166;2022-12-29T04:33:41;12.30;99.10
2913;DHT22;1466;48.778;9.166;2022-12-29T04:36:07;12.40;99.20
2913;DHT22;1466;48.778;9.166;2022-12-29T04:38:33;12.40;99.10
2913;DHT22;1466;48.778;9.166;2022-12-29T04:41:02;12.40;99.10
2913;DHT22;1466;48.778;9.166;2022-12-29T04:43:28;12.40;99.10
2913;DHT22;1466;48.778;9.166;2022-12-29T04:45:53;12.40;99.10
2913;DHT22;1466;48.778;9.166;2022-12-29T04:48:19;12.40;99.10
2913;DHT22;1466;48.778;9.166;2022-12-29T04:50:47;12.40;99.10
2913;DHT22;1466;48.778;9.166;2022-12-29T04:53:13;12.40;99.20
2913;DHT22;1466;48.778;9.166;2022-12-29T04:55:38;12.40;99.40
2913;DHT22;1466;48.778;9.166;2022-12-29T04:58:04;12.30;99.50
2913;DHT22;1466;48.778;9.166;2022-12-29T05:00:29;12.30;99.60
2913;DHT22;1466;48.778;9.166;2022-12-29T05:02:55;12.40;99.70
2913;DHT22;1466;48.778;9.166;2022-12-29T05:05:21;12.40;99.70
2913;DHT22;1466;48.778;9.166;2022-12-29T05:07:46;12.40;99.90
2913;DHT22;1466;48.778;9.166;2022-12-29T05:10:12;12.40;99.80
2913;DHT22;1466;48.778;9.166;2022-12-29T05:12:38;12.40;99.90
2913;DHT22;1466;48.778;9.166;2022-12-29T05:15:05;12.50;99.90
2913;DHT22;1466;48.778;9.166;2022-12-29T05:17:31;12.50;99.90
2913;DHT22;1466;48.778;9.166;2022-12-29T05:19:57;12.50;99.90
2913;DHT22;1466;48.778;9.166;2022-12-29T05:22:23;12.50;99.90
2913;DHT22;1466;48.778;9.166;2022-12-29T05:24:48;12.50;99.90
2913;DHT22;1466;48.778;9.166;2022-12-29T05:27:14;12.50;99.90
2913;DHT22;1466;48.778;9.166;2022-12-29T05:29:39;12.50;99.90
2913;DHT22;1466;48.778;9.166;2022-12-29T05:32:05;12.50;99.90
2913;DHT22;1466;48.778;9.166;2022-12-29T05:34:31;12.50;99.90
2913;DHT22;1466;48.778;9.166;2022-12-29T05:36:56;12.50;99.90
2913;DHT22;1466;48.778;9.166;2022-12-29T05:39:22;12.50;99.90
2913;DHT22;1466;48.778;9.166;2022-12-29T05:41:48;12.40;99.90
2913;DHT22;1466;48.778;9.166;2022-12-29T05:44:13;12.50;99.90
2913;DHT22;1466;48.778;9.166;2022-12-29T05:46:39;12.40;99.90
2913;DHT22;1466;48.778;9.166;2022-12-29T05:49:05;12.40;99.90
2913;DHT22;1466;48.778;9.166;2022-12-29T05:51:31;12.40;99.90
2913;DHT22;1466;48.778;9.166;2022-12-29T05:53:56;12.50;99.90
2913;DHT22;1466;48.778;9.166;2022-12-29T05:56:22;12.50;99.90
2913;DHT22;1466;48.778;9.166;2022-12-29T05:58:48;12.50;99.90
2913;DHT22;1466;48.778;9.166;2022-12-29T06:01:14;12.50;99.90
2913;DHT22;1466;48.778;9.166;2022-12-29T06:03:39;12.60;99.90
2913;DHT22;1466;48.778;9.166;2022-12-29T06:06:05;12.60;99.90
2913;DHT22;1466;48.778;9.166;2022-12-29T06:08:30;12.60;99.90
2913;DHT22;1466;48.778;9.166;2022-12-29T06:10:56;12.60;99.90
2913;DHT22;1466;48.778;9.166;2022-12-29T06:13:22;12.60;99.90
2913;DHT22;1466;48.778;9.166;2022-12-29T06:15:51;12.60;99.90
2913;DHT22;1466;48.778;9.166;2022-12-29T06:18:16;12.60;99.80
2913;DHT22;1466;48.778;9.166;2022-12-29T06:20:42;12.60;99.80
2913;DHT22;1466;48.778;9.166;2022-12-29T06:23:08;12.60;99.70
2913;DHT22;1466;48.778;9.166;2022-12-29T06:25:34;12.50;99.80
2913;DHT22;1466;48.778;9.166;2022-12-29T06:28:01;12.50;99.80
2913;DHT22;1466;48.778;9.166;2022-12-29T06:30:26;12.50;99.80
2913;DHT22;1466;48.778;9.166;2022-12-29T06:32:52;12.50;99.80
2913;DHT22;1466;48.778;9.166;2022-12-29T06:35:18;12.50;99.80
2913;DHT22;1466;48.778;9.166;2022-12-29T06:37:44;12.50;99.90
2913;DHT22;1466;48.778;9.166;2022-12-29T06:40:10;12.50;99.70
2913;DHT22;1466;48.778;9.166;2022-12-29T06:42:37;12.60;99.70
2913;DHT22;1466;48.778;9.166;2022-12-29T06:45:03;12.50;99.60
2913;DHT22;1466;48.778;9.166;2022-12-29T06:47:28;12.60;99.60
2913;DHT22;1466;48.778;9.166;2022-12-29T06:49:54;12.60;99.60
2913;DHT22;1466;48.778;9.166;2022-12-29T06:52:20;12.60;99.50
2913;DHT22;1466;48.778;9.166;2022-12-29T06:54:46;12.60;99.40
2913;DHT22;1466;48.778;9.166;2022-12-29T06:57:11;12.60;99.40
2913;DHT22;1466;48.778;9.166;2022-12-29T06:59:37;12.50;99.30
2913;DHT22;1466;48.778;9.166;2022-12-29T07:02:02;12.50;99.20
2913;DHT22;1466;48.778;9.166;2022-12-29T07:04:28;12.50;99.20
2913;DHT22;1466;48.778;9.166;2022-12-29T07:07:15;12.40;99.20
2913;DHT22;1466;48.778;9.166;2022-12-29T07:09:46;12.40;99.10
2913;DHT22;1466;48.778;9.166;2022-12-29T07:12:12;12.40;99.10
2913;DHT22;1466;48.778;9.166;2022-12-29T07:14:37;12.30;99.00
2913;DHT22;1466;48.778;9.166;2022-12-29T07:17:03;12.30;99.00
2913;DHT22;1466;48.778;9.166;2022-12-29T07:19:32;12.30;99.00
2913;DHT22;1466;48.778;9.166;2022-12-29T07:21:58;12.30;99.00
2913;DHT22;1466;48.778;9.166;2022-12-29T07:24:24;12.30;98.90
2913;DHT22;1466;48.778;9.166;2022-12-29T07:26:51;12.30;98.90
2913;DHT22;1466;48.778;9.166;2022-12-29T07:29:17;12.30;98.80
2913;DHT22;1466;48.778;9.166;2022-12-29T07:31:42;12.30;98.80
2913;DHT22;1466;48.778;9.166;2022-12-29T07:34:09;12.30;98.80
2913;DHT22;1466;48.778;9.166;2022-12-29T07:36:34;12.30;98.80
2913;DHT22;1466;48.778;9.166;2022-12-29T07:39:00;12.40;98.80
2913;DHT22;1466;48.778;9.166;2022-12-29T07:41:26;12.40;98.80
2913;DHT22;1466;48.778;9.166;2022-12-29T07:43:52;12.40;98.70
2913;DHT22;1466;48.778;9.166;2022-12-29T07:46:17;12.40;98.80
2913;DHT22;1466;48.778;9.166;2022-12-29T07:48:43;12.40;98.70
2913;DHT22;1466;48.778;9.166;2022-12-29T07:51:08;12.40;98.70
2913;DHT22;1466;48.778;9.166;2022-12-29T07:53:35;12.40;98.70
2913;DHT22;1466;48.778;9.166;2022-12-29T07:56:00;12.40;98.70
2913;DHT22;1466;48.778;9.166;2022-12-29T07:58:26;12.40;98.70
2913;DHT22;1466;48.778;9.166;2022-12-29T08:00:55;12.40;98.80
2913;DHT22;1466;48.778;9.166;2022-12-29T08:03:21;12.40;98.80
2913;DHT22;1466;48.778;9.166;2022-12-29T08:05:47;12.50;98.80
2913;DHT22;1466;48.778;9.166;2022-12-29T08:08:13;12.50;98.80
2913;DHT22;1466;48.778;9.166;2022-12-29T08:10:38;12.50;98.70
2913;DHT22;1466;48.778;9.166;2022-12-29T08:13:04;12.60;98.70
2913;DHT22;1466;48.778;9.166;2022-12-29T08:15:29;12.50;98.70
2913;DHT22;1466;48.778;9.166;2022-12-29T08:17:55;12.60;98.70
2913;DHT22;1466;48.778;9.166;2022-12-29T08:20:20;12.60;98.70
2913;DHT22;1466;48.778;9.166;2022-12-29T08:22:46;12.60;98.70
2913;DHT22;1466;48.778;9.166;2022-12-29T08:25:12;12.70;98.70
2913;DHT22;1466;48.778;9.166;2022-12-29T08:27:37;12.60;98.70
2913;DHT22;1466;48.778;9.166;2022-12-29T08:30:03;12.60;98.80
2913;DHT22;1466;48.778;9.166;2022-12-29T08:32:29;12.60;98.80
2913;DHT22;1466;48.778;9.166;2022-12-29T08:34:55;12.70;98.90
2913;DHT22;1466;48.778;9.166;2022-12-29T08:37:21;12.70;98.80
2913;DHT22;1466;48.778;9.166;2022-12-29T08:39:47;12.70;98.90
2913;DHT22;1466;48.778;9.166;2022-12-29T08:42:13;12.80;98.80
2913;DHT22;1466;48.778;9.166;2022-12-29T08:44:38;12.70;98.80
2913;DHT22;1466;48.778;9.166;2022-12-29T08:47:04;12.70;98.80
2913;DHT22;1466;48.778;9.166;2022-12-29T08:49:30;12.70;98.90
2913;DHT22;1466;48.778;9.166;2022-12-29T08:51:56;12.70;98.90
2913;DHT22;1466;48.778;9.166;2022-12-29T08:54:21;12.70;99.10
2913;DHT22;1466;48.778;9.166;2022-12-29T08:56:47;12.70;98.90
2913;DHT22;1466;48.778;9.166;2022-12-29T08:59:13;12.80;99.00
2913;DHT22;1466;48.778;9.166;2022-12-29T09:01:38;12.70;99.00
2913;DHT22;1466;48.778;9.166;2022-12-29T09:04:06;12.80;99.00
2913;DHT22;1466;48.778;9.166;2022-12-29T09:06:32;12.70;99.00
2913;DHT22;1466;48.778;9.166;2022-12-29T09:08:57;12.80;99.00
2913;DHT22;1466;48.778;9.166;2022-12-29T09:11:24;12.70;99.00
2913;DHT22;1466;48.778;9.166;2022-12-29T09:13:51;12.80;99.00
2913;DHT22;1466;48.778;9.166;2022-12-29T09:16:18;12.90;99.00
2913;DHT22;1466;48.778;9.166;2022-12-29T09:18:44;13.00;99.00
2913;DHT22;1466;48.778;9.166;2022-12-29T09:21:11;13.10;99.00
2913;DHT22;1466;48.778;9.166;2022-12-29T09:23:37;13.10;98.90
2913;DHT22;1466;48.778;9.166;2022-12-29T09:26:03;13.10;98.80
2913;DHT22;1466;48.778;9.166;2022-12-29T09:28:29;13.20;98.80
2913;DHT22;1466;48.778;9.166;2022-12-29T09:30:55;13.30;98.80
2913;DHT22;1466;48.778;9.166;2022-12-29T09:33:21;13.30;98.70
2913;DHT22;1466;48.778;9.166;2022-12-29T09:38:16;13.60;98.50
2913;DHT22;1466;48.778;9.166;2022-12-29T09:40:44;13.50;98.50
2913;DHT22;1466;48.778;9.166;2022-12-29T09:46:28;13.70;98.40
2913;DHT22;1466;48.778;9.166;2022-12-29T09:52:15;13.80;98.30
2913;DHT22;1466;48.778;9.166;2022-12-29T09:54:58;13.80;98.10
2913;DHT22;1466;48.778;9.166;2022-12-29T09:57:32;13.90;98.10
2913;DHT22;1466;48.778;9.166;2022-12-29T10:00:05;14.00;98.10
2913;DHT22;1466;48.778;9.166;2022-12-29T10:05:25;14.00;97.90
2913;DHT22;1466;48.778;9.166;2022-12-29T10:08:22;14.00;97.90
2913;DHT22;1466;48.778;9.166;2022-12-29T10:10:54;14.00;97.90
2913;DHT22;1466;48.778;9.166;2022-12-29T10:14:16;14.00;97.80
2913;DHT22;1466;48.778;9.166;2022-12-29T10:16:39;14.00;97.90
2913;DHT22;1466;48.778;9.166;2022-12-29T10:19:31;14.00;98.30
2913;DHT22;1466;48.778;9.166;2022-12-29T10:22:07;14.00;97.90
2913;DHT22;1466;48.778;9.166;2022-12-29T10:24:38;14.10;98.00
2913;DHT22;1466;48.778;9.166;2022-12-29T10:27:09;14.10;98.00
2913;DHT22;1466;48.778;9.166;2022-12-29T10:29:44;14.20;98.00
2913;DHT22;1466;48.778;9.166;2022-12-29T10:32:25;14.20;97.80
2913;DHT22;1466;48.778;9.166;2022-12-29T10:34:54;14.30;97.90
2913;DHT22;1466;48.778;9.166;2022-12-29T10:37:36;14.30;97.80
2913;DHT22;1466;48.778;9.166;2022-12-29T10:40:24;14.30;97.80
2913;DHT22;1466;48.778;9.166;2022-12-29T10:42:53;14.40;97.70
2913;DHT22;1466;48.778;9.166;2022-12-29T10:45:21;14.50;97.60
2913;DHT22;1466;48.778;9.166;2022-12-29T10:47:55;14.60;97.60
2913;DHT22;1466;48.778;9.166;2022-12-29T10:50:23;14.70;97.60
2913;DHT22;1466;48.778;9.166;2022-12-29T10:52:50;14.80;97.50
2913;DHT22;1466;48.778;9.166;2022-12-29T10:55:24;14.80;97.50
2913;DHT22;1466;48.778;9.166;2022-12-29T10:57:50;15.10;97.70
2913;DHT22;1466;48.778;9.166;2022-12-29T11:00:18;15.30;97.20
2913;DHT22;1466;48.778;9.166;2022-12-29T11:05:54;15.60;96.60
2913;DHT22;1466;48.778;9.166;2022-12-29T11:08:25;15.50;96.50
2913;DHT22;1466;48.778;9.166;2022-12-29T11:11:06;15.50;96.50
2913;DHT22;1466;48.778;9.166;2022-12-29T11:13:34;15.40;96.40
2913;DHT22;1466;48.778;9.166;2022-12-29T11:16:00;15.30;96.50
2913;DHT22;1466;48.778;9.166;2022-12-29T11:18:37;15.20;96.50
2913;DHT22;1466;48.778;9.166;2022-12-29T11:21:05;15.20;96.60
2913;DHT22;1466;48.778;9.166;2022-12-29T11:23:40;15.20;96.80
2913;DHT22;1466;48.778;9.166;2022-12-29T11:26:22;15.20;96.80
2913;DHT22;1466;48.778;9.166;2022-12-29T11:31:48;15.10;96.80
2913;DHT22;1466;48.778;9.166;2022-12-29T11:34:26;15.00;96.70
2913;DHT22;1466;48.778;9.166;2022-12-29T11:37:02;15.00;96.80
2913;DHT22;1466;48.778;9.166;2022-12-29T11:39:32;15.00;96.80
2913;DHT22;1466;48.778;9.166;2022-12-29T11:41:59;15.00;96.80
2913;DHT22;1466;48.778;9.166;2022-12-29T11:44:25;14.90;97.00
2913;DHT22;1466;48.778;9.166;2022-12-29T11:46:52;14.90;97.70
2913;DHT22;1466;48.778;9.166;2022-12-29T11:49:22;14.70;98.30
2913;DHT22;1466;48.778;9.166;2022-12-29T11:51:50;14.60;98.90
2913;DHT22;1466;48.778;9.166;2022-12-29T11:54:27;14.60;99.70
2913;DHT22;1466;48.778;9.166;2022-12-29T11:56:54;14.50;99.90
2913;DHT22;1466;48.778;9.166;2022-12-29T12:02:03;14.40;99.90
2913;DHT22;1466;48.778;9.166;2022-12-29T12:04:36;14.30;99.90
2913;DHT22;1466;48.778;9.166;2022-12-29T12:12:27;14.20;99.90
2913;DHT22;1466;48.778;9.166;2022-12-29T12:14:56;14.20;99.90
2913;DHT22;1466;48.778;9.166;2022-12-29T12:17:36;14.20;99.90
2913;DHT22;1466;48.778;9.166;2022-12-29T12:23:08;14.10;99.90
2913;DHT22;1466;48.778;9.166;2022-12-29T12:25:43;14.10;99.90
2913;DHT22;1466;48.778;9.166;2022-12-29T12:28:24;14.20;99.90
2913;DHT22;1466;48.778;9.166;2022-12-29T12:30:55;14.20;99.90
2913;DHT22;1466;48.778;9.166;2022-12-29T12:36:16;14.30;99.90
2913;DHT22;1466;48.778;9.166;2022-12-29T12:50:07;14.30;99.90
2913;DHT22;1466;48.778;9.166;2022-12-29T12:56:09;14.20;99.90
2913;DHT22;1466;48.778;9.166;2022-12-29T13:01:51;14.30;99.90
2913;DHT22;1466;48.778;9.166;2022-12-29T13:24:00;14.60;99.90
2913;DHT22;1466;48.778;9.166;2022-12-29T13:26:37;14.70;99.90
2913;DHT22;1466;48.778;9.166;2022-12-29T13:29:31;14.50;99.90
2913;DHT22;1466;48.778;9.166;2022-12-29T13:32:11;14.40;99.90
2913;DHT22;1466;48.778;9.166;2022-12-29T13:34:48;14.40;99.90
2913;DHT22;1466;48.778;9.166;2022-12-29T13:37:20;14.30;99.90
2913;DHT22;1466;48.778;9.166;2022-12-29T13:39:54;14.30;99.90
2913;DHT22;1466;48.778;9.166;2022-12-29T13:42:21;14.30;99.90
2913;DHT22;1466;48.778;9.166;2022-12-29T13:44:59;14.30;99.90
2913;DHT22;1466;48.778;9.166;2022-12-29T13:47:49;14.30;99.90
2913;DHT22;1466;48.778;9.166;2022-12-29T13:50:20;14.20;99.90
2913;DHT22;1466;48.778;9.166;2022-12-29T13:53:11;14.30;99.90
2913;DHT22;1466;48.778;9.166;2022-12-29T13:58:47;14.20;99.90
2913;DHT22;1466;48.778;9.166;2022-12-29T14:08:42;14.20;99.90
2913;DHT22;1466;48.778;9.166;2022-12-29T14:11:12;14.20;99.90
2913;DHT22;1466;48.778;9.166;2022-12-29T14:13:41;14.20;99.90
2913;DHT22;1466;48.778;9.166;2022-12-29T14:16:31;14.20;99.90
2913;DHT22;1466;48.778;9.166;2022-12-29T14:18:57;14.30;99.90
2913;DHT22;1466;48.778;9.166;2022-12-29T14:21:29;14.20;99.90
2913;DHT22;1466;48.778;9.166;2022-12-29T14:24:25;14.20;99.90
2913;DHT22;1466;48.778;9.166;2022-12-29T14:26:46;14.10;99.90
2913;DHT22;1466;48.778;9.166;2022-12-29T14:29:41;14.10;99.90
2913;DHT22;1466;48.778;9.166;2022-12-29T14:32:07;14.00;99.90
2913;DHT22;1466;48.778;9.166;2022-12-29T14:34:49;14.00;99.90
2913;DHT22;1466;48.778;9.166;2022-12-29T14:37:35;14.10;99.90
2913;DHT22;1466;48.778;9.166;2022-12-29T14:42:30;14.00;99.90
2913;DHT22;1466;48.778;9.166;2022-12-29T14:45:29;14.00;99.90
2913;DHT22;1466;48.778;9.166;2022-12-29T14:47:55;13.90;99.90
2913;DHT22;1466;48.778;9.166;2022-12-29T14:50:25;13.90;99.90
2913;DHT22;1466;48.778;9.166;2022-12-29T14:52:58;13.90;99.90
2913;DHT22;1466;48.778;9.166;2022-12-29T14:58:06;13.90;99.90
2913;DHT22;1466;48.778;9.166;2022-12-29T15:00:38;13.90;99.90
2913;DHT22;1466;48.778;9.166;2022-12-29T15:05:36;13.90;99.90
2913;DHT22;1466;48.778;9.166;2022-12-29T15:08:06;13.90;99.90
2913;DHT22;1466;48.778;9.166;2022-12-29T15:10:37;13.90;99.90
2913;DHT22;1466;48.778;9.166;2022-12-29T15:13:15;13.90;99.90
2913;DHT22;1466;48.778;9.166;2022-12-29T15:15:41;13.90;99.90
2913;DHT22;1466;48.778;9.166;2022-12-29T15:18:25;13.80;99.90
2913;DHT22;1466;48.778;9.166;2022-12-29T15:20:54;13.80;99.90
2913;DHT22;1466;48.778;9.166;2022-12-29T15:23:21;13.80;99.90
2913;DHT22;1466;48.778;9.166;2022-12-29T15:26:07;13.70;99.90
2913;DHT22;1466;48.778;9.166;2022-12-29T15:28:44;13.70;99.90
2913;DHT22;1466;48.778;9.166;2022-12-29T15:31:15;13.70;99.90
2913;DHT22;1466;48.778;9.166;2022-12-29T15:33:43;13.60;99.90
2913;DHT22;1466;48.778;9.166;2022-12-29T15:36:24;13.50;99.90
2913;DHT22;1466;48.778;9.166;2022-12-29T15:38:50;13.60;99.90
2913;DHT22;1466;48.778;9.166;2022-12-29T15:41:36;13.50;99.90
2913;DHT22;1466;48.778;9.166;2022-12-29T15:44:28;13.50;99.90
2913;DHT22;1466;48.778;9.166;2022-12-29T15:46:55;13.50;99.90
2913;DHT22;1466;48.778;9.166;2022-12-29T15:49:20;13.50;99.90
2913;DHT22;1466;48.778;9.166;2022-12-29T15:51:46;13.50;99.90
2913;DHT22;1466;48.778;9.166;2022-12-29T15:54:23;13.60;99.90
2913;DHT22;1466;48.778;9.166;2022-12-29T15:56:49;13.60;99.90
2913;DHT22;1466;48.778;9.166;2022-12-29T15:59:32;13.60;99.90
2913;DHT22;1466;48.778;9.166;2022-12-29T16:02:00;13.40;99.90
2913;DHT22;1466;48.778;9.166;2022-12-29T16:04:31;13.10;99.90
2913;DHT22;1466;48.778;9.166;2022-12-29T16:07:05;12.90;99.90
2913;DHT22;1466;48.778;9.166;2022-12-29T16:09:32;12.70;99.90
2913;DHT22;1466;48.778;9.166;2022-12-29T16:12:19;12.60;99.90
2913;DHT22;1466;48.778;9.166;2022-12-29T16:14:48;12.60;99.90
2913;DHT22;1466;48.778;9.166;2022-12-29T16:17:18;12.60;99.90
2913;DHT22;1466;48.778;9.166;2022-12-29T16:19:51;12.50;99.90
2913;DHT22;1466;48.778;9.166;2022-12-29T16:22:33;12.40;99.90
2913;DHT22;1466;48.778;9.166;2022-12-29T16:27:46;12.40;99.90
2913;DHT22;1466;48.778;9.166;2022-12-29T16:30:23;12.40;99.90
2913;DHT22;1466;48.778;9.166;2022-12-29T16:32:51;12.40;99.90
2913;DHT22;1466;48.778;9.166;2022-12-29T16:35:20;12.40;99.90
2913;DHT22;1466;48.778;9.166;2022-12-29T16:37:47;12.30;99.90
2913;DHT22;1466;48.778;9.166;2022-12-29T16:40:26;12.30;99.90
2913;DHT22;1466;48.778;9.166;2022-12-29T16:43:00;12.40;99.90
2913;DHT22;1466;48.778;9.166;2022-12-29T16:50:40;12.60;99.90
2913;DHT22;1466;48.778;9.166;2022-12-29T16:53:35;12.70;99.90
2913;DHT22;1466;48.778;9.166;2022-12-29T16:56:14;12.70;99.90
2913;DHT22;1466;48.778;9.166;2022-12-29T16:58:40;12.60;99.90
2913;DHT22;1466;48.778;9.166;2022-12-29T17:01:07;12.60;99.90
2913;DHT22;1466;48.778;9.166;2022-12-29T17:03:43;12.50;99.90
2913;DHT22;1466;48.778;9.166;2022-12-29T17:06:18;12.50;99.90
2913;DHT22;1466;48.778;9.166;2022-12-29T17:08:45;12.50;99.90
2913;DHT22;1466;48.778;9.166;2022-12-29T17:11:31;12.40;99.90
2913;DHT22;1466;48.778;9.166;2022-12-29T17:14:41;12.30;99.90
2913;DHT22;1466;48.778;9.166;2022-12-29T17:18:01;12.20;99.90
2913;DHT22;1466;48.778;9.166;2022-12-29T17:20:19;12.20;99.90
2913;DHT22;1466;48.778;9.166;2022-12-29T17:22:45;12.10;99.90
2913;DHT22;1466;48.778;9.166;2022-12-29T17:25:13;12.00;99.90
2913;DHT22;1466;48.778;9.166;2022-12-29T17:30:25;12.00;99.90
2913;DHT22;1466;48.778;9.166;2022-12-29T17:33:03;12.00;99.90
2913;DHT22;1466;48.778;9.166;2022-12-29T17:35:29;12.00;99.90
2913;DHT22;1466;48.778;9.166;2022-12-29T17:37:55;12.10;99.90
2913;DHT22;1466;48.778;9.166;2022-12-29T17:40:24;12.10;99.90
2913;DHT22;1466;48.778;9.166;2022-12-29T17:42:56;12.10;99.90
2913;DHT22;1466;48.778;9.166;2022-12-29T17:45:29;12.00;99.90
2913;DHT22;1466;48.778;9.166;2022-12-29T17:47:55;12.10;99.90
2913;DHT22;1466;48.778;9.166;2022-12-29T17:50:24;12.00;99.90
2913;DHT22;1466;48.778;9.166;2022-12-29T17:52:52;12.00;99.90
2913;DHT22;1466;48.778;9.166;2022-12-29T17:55:21;12.00;99.90
2913;DHT22;1466;48.778;9.166;2022-12-29T17:57:47;12.10;99.90
2913;DHT22;1466;48.778;9.166;2022-12-29T18:00:18;12.10;99.90
2913;DHT22;1466;48.778;9.166;2022-12-29T18:02:44;12.10;99.90
2913;DHT22;1466;48.778;9.166;2022-12-29T18:05:17;12.20;99.90
2913;DHT22;1466;48.778;9.166;2022-12-29T18:07:43;12.20;99.90
2913;DHT22;1466;48.778;9.166;2022-12-29T18:10:09;12.20;99.90
2913;DHT22;1466;48.778;9.166;2022-12-29T18:12:40;12.20;99.90
2913;DHT22;1466;48.778;9.166;2022-12-29T18:15:15;12.10;99.90
2913;DHT22;1466;48.778;9.166;2022-12-29T18:17:41;12.10;99.90
2913;DHT22;1466;48.778;9.166;2022-12-29T18:20:07;12.00;99.90
2913;DHT22;1466;48.778;9.166;2022-12-29T18:22:32;12.00;99.90
2913;DHT22;1466;48.778;9.166;2022-12-29T18:24:58;12.00;99.90
2913;DHT22;1466;48.778;9.166;2022-12-29T18:27:25;12.00;99.90
2913;DHT22;1466;48.778;9.166;2022-12-29T18:29:51;11.90;99.90
2913;DHT22;1466;48.778;9.166;2022-12-29T18:32:17;11.80;99.90
2913;DHT22;1466;48.778;9.166;2022-12-29T18:34:43;11.70;99.90
2913;DHT22;1466;48.778;9.166;2022-12-29T18:37:09;11.50;99.90
2913;DHT22;1466;48.778;9.166;2022-12-29T18:39:35;11.50;99.90